sensor_id;sensor_type;location;lat;lon;timestamp;P1;durP1;ratioP1;P2;durP2;ratioP2
22318;SDS011;11327;52.334;9.506;2023-07-24T00:00:16;2.25;;;2.00;;
22318;SDS011;11327;52.334;9.506;2023-07-24T00:03:37;2.30;;;2.10;;
22318;SDS011;11327;52.334;9.506;2023-07-24T00:06:58;2.50;;;2.30;;
22318;SDS011;11327;52.334;9.506;2023-07-24T00:10:18;2.30;;;2.10;;
22318;SDS011;11327;52.334;9.506;2023-07-24T00:13:39;2.90;;;2.62;;
22318;SDS011;11327;52.334;9.506;2023-07-24T00:17:00;2.52;;;2.33;;
22318;SDS011;11327;52.334;9.506;2023-07-24T00:20:21;2.50;;;2.30;;
22318;SDS011;11327;52.334;9.506;2023-07-24T00:23:41;2.37;;;2.10;;
22318;SDS011;11327;52.334;9.506;2023-07-24T00:27:02;3.27;;;2.52;;
22318;SDS011;11327;52.334;9.506;2023-07-24T00:30:23;2.87;;;2.60;;
22318;SDS011;11327;52.334;9.506;2023-07-24T00:33:44;3.08;;;2.75;;
22318;SDS011;11327;52.334;9.506;2023-07-24T00:37:04;3.95;;;2.90;;
22318;SDS011;11327;52.334;9.506;2023-07-24T00:40:25;3.47;;;2.90;;
22318;SDS011;11327;52.334;9.506;2023-07-24T00:43:46;3.80;;;2.67;;
22318;SDS011;11327;52.334;9.506;2023-07-24T00:47:07;3.27;;;2.98;;
22318;SDS011;11327;52.334;9.506;2023-07-24T00:50:28;3.25;;;2.92;;
22318;SDS011;11327;52.334;9.506;2023-07-24T00:53:49;4.10;;;3.67;;
22318;SDS011;11327;52.334;9.506;2023-07-24T00:57:10;3.85;;;3.27;;
22318;SDS011;11327;52.334;9.506;2023-07-24T01:00:31;4.05;;;3.65;;
22318;SDS011;11327;52.334;9.506;2023-07-24T01:03:52;5.10;;;3.83;;
22318;SDS011;11327;52.334;9.506;2023-07-24T01:07:13;4.12;;;3.72;;
22318;SDS011;11327;52.334;9.506;2023-07-24T01:10:33;4.50;;;4.10;;
22318;SDS011;11327;52.334;9.506;2023-07-24T01:13:58;5.30;;;4.65;;
22318;SDS011;11327;52.334;9.506;2023-07-24T01:17:25;5.33;;;4.40;;
22318;SDS011;11327;52.334;9.506;2023-07-24T01:20:53;4.92;;;4.53;;
22318;SDS011;11327;52.334;9.506;2023-07-24T01:24:23;5.45;;;4.67;;
22318;SDS011;11327;52.334;9.506;2023-07-24T01:27:46;5.75;;;5.03;;
22318;SDS011;11327;52.334;9.506;2023-07-24T01:31:06;6.12;;;4.87;;
22318;SDS011;11327;52.334;9.506;2023-07-24T01:34:27;5.30;;;4.62;;
22318;SDS011;11327;52.334;9.506;2023-07-24T01:37:48;5.33;;;4.83;;
22318;SDS011;11327;52.334;9.506;2023-07-24T01:41:10;5.50;;;5.00;;
22318;SDS011;11327;52.334;9.506;2023-07-24T01:44:31;5.58;;;4.97;;
22318;SDS011;11327;52.334;9.506;2023-07-24T01:47:51;5.97;;;5.15;;
22318;SDS011;11327;52.334;9.506;2023-07-24T01:51:12;5.22;;;4.55;;
22318;SDS011;11327;52.334;9.506;2023-07-24T01:54:33;6.00;;;5.40;;
22318;SDS011;11327;52.334;9.506;2023-07-24T01:57:53;5.83;;;5.33;;
22318;SDS011;11327;52.334;9.506;2023-07-24T02:01:14;5.37;;;4.87;;
22318;SDS011;11327;52.334;9.506;2023-07-24T02:04:35;6.75;;;5.47;;
22318;SDS011;11327;52.334;9.506;2023-07-24T02:07:55;5.58;;;4.97;;
22318;SDS011;11327;52.334;9.506;2023-07-24T02:11:16;5.53;;;4.90;;
22318;SDS011;11327;52.334;9.506;2023-07-24T02:14:38;5.22;;;4.72;;
22318;SDS011;11327;52.334;9.506;2023-07-24T02:17:58;5.17;;;4.65;;
22318;SDS011;11327;52.334;9.506;2023-07-24T02:21:19;5.30;;;4.80;;
22318;SDS011;11327;52.334;9.506;2023-07-24T02:24:40;5.87;;;4.78;;
22318;SDS011;11327;52.334;9.506;2023-07-24T02:28:00;5.33;;;4.83;;
22318;SDS011;11327;52.334;9.506;2023-07-24T02:31:21;5.95;;;5.00;;
22318;SDS011;11327;52.334;9.506;2023-07-24T02:34:42;6.03;;;5.42;;
22318;SDS011;11327;52.334;9.506;2023-07-24T02:38:03;6.67;;;6.08;;
22318;SDS011;11327;52.334;9.506;2023-07-24T02:41:24;5.47;;;4.97;;
22318;SDS011;11327;52.334;9.506;2023-07-24T02:44:44;5.80;;;5.10;;
22318;SDS011;11327;52.334;9.506;2023-07-24T02:48:05;6.17;;;4.97;;
22318;SDS011;11327;52.334;9.506;2023-07-24T02:51:26;6.67;;;5.10;;
22318;SDS011;11327;52.334;9.506;2023-07-24T02:54:47;6.72;;;4.80;;
22318;SDS011;11327;52.334;9.506;2023-07-24T02:58:07;4.75;;;4.10;;
22318;SDS011;11327;52.334;9.506;2023-07-24T03:01:28;4.47;;;4.08;;
22318;SDS011;11327;52.334;9.506;2023-07-24T03:04:49;4.85;;;3.67;;
22318;SDS011;11327;52.334;9.506;2023-07-24T03:08:10;3.65;;;3.35;;
22318;SDS011;11327;52.334;9.506;2023-07-24T03:11:30;3.95;;;3.17;;
22318;SDS011;11327;52.334;9.506;2023-07-24T03:14:51;4.12;;;3.33;;
22318;SDS011;11327;52.334;9.506;2023-07-24T03:18:12;4.37;;;3.58;;
22318;SDS011;11327;52.334;9.506;2023-07-24T03:21:32;4.62;;;3.17;;
22318;SDS011;11327;52.334;9.506;2023-07-24T03:24:53;3.47;;;3.12;;
22318;SDS011;11327;52.334;9.506;2023-07-24T03:28:14;3.30;;;3.00;;
22318;SDS011;11327;52.334;9.506;2023-07-24T03:31:35;3.30;;;2.98;;
22318;SDS011;11327;52.334;9.506;2023-07-24T03:34:55;3.12;;;2.80;;
22318;SDS011;11327;52.334;9.506;2023-07-24T03:38:16;3.37;;;2.70;;
22318;SDS011;11327;52.334;9.506;2023-07-24T03:41:37;4.85;;;2.70;;
22318;SDS011;11327;52.334;9.506;2023-07-24T03:44:58;3.22;;;2.50;;
22318;SDS011;11327;52.334;9.506;2023-07-24T03:48:19;3.10;;;2.40;;
22318;SDS011;11327;52.334;9.506;2023-07-24T03:51:40;3.10;;;2.58;;
22318;SDS011;11327;52.334;9.506;2023-07-24T03:55:01;2.40;;;2.20;;
22318;SDS011;11327;52.334;9.506;2023-07-24T03:58:22;4.15;;;2.35;;
22318;SDS011;11327;52.334;9.506;2023-07-24T04:01:43;4.40;;;2.58;;
22318;SDS011;11327;52.334;9.506;2023-07-24T04:05:03;3.60;;;2.40;;
22318;SDS011;11327;52.334;9.506;2023-07-24T04:08:24;3.83;;;2.70;;
22318;SDS011;11327;52.334;9.506;2023-07-24T04:11:45;3.50;;;2.45;;
22318;SDS011;11327;52.334;9.506;2023-07-24T04:15:06;2.60;;;2.30;;
22318;SDS011;11327;52.334;9.506;2023-07-24T04:18:27;3.42;;;2.55;;
22318;SDS011;11327;52.334;9.506;2023-07-24T04:21:48;3.62;;;2.62;;
22318;SDS011;11327;52.334;9.506;2023-07-24T04:25:09;3.15;;;2.42;;
22318;SDS011;11327;52.334;9.506;2023-07-24T04:28:29;3.10;;;2.60;;
22318;SDS011;11327;52.334;9.506;2023-07-24T04:31:50;3.30;;;2.80;;
22318;SDS011;11327;52.334;9.506;2023-07-24T04:35:11;3.87;;;2.90;;
22318;SDS011;11327;52.334;9.506;2023-07-24T04:38:32;4.17;;;2.60;;
22318;SDS011;11327;52.334;9.506;2023-07-24T04:41:52;3.00;;;2.50;;
22318;SDS011;11327;52.334;9.506;2023-07-24T04:45:13;4.15;;;2.80;;
22318;SDS011;11327;52.334;9.506;2023-07-24T04:48:34;3.62;;;2.87;;
22318;SDS011;11327;52.334;9.506;2023-07-24T04:51:55;3.77;;;2.45;;
22318;SDS011;11327;52.334;9.506;2023-07-24T04:55:15;3.83;;;2.60;;
22318;SDS011;11327;52.334;9.506;2023-07-24T04:58:36;3.45;;;2.50;;
22318;SDS011;11327;52.334;9.506;2023-07-24T05:01:57;3.00;;;2.62;;
22318;SDS011;11327;52.334;9.506;2023-07-24T05:05:17;3.12;;;2.52;;
22318;SDS011;11327;52.334;9.506;2023-07-24T05:08:38;3.45;;;2.42;;
22318;SDS011;11327;52.334;9.506;2023-07-24T05:11:59;3.65;;;2.65;;
22318;SDS011;11327;52.334;9.506;2023-07-24T05:15:20;3.20;;;2.35;;
22318;SDS011;11327;52.334;9.506;2023-07-24T05:18:40;4.28;;;2.30;;
22318;SDS011;11327;52.334;9.506;2023-07-24T05:22:01;3.62;;;2.60;;
22318;SDS011;11327;52.334;9.506;2023-07-24T05:25:22;2.83;;;2.05;;
22318;SDS011;11327;52.334;9.506;2023-07-24T05:28:42;3.08;;;1.82;;
22318;SDS011;11327;52.334;9.506;2023-07-24T05:32:03;3.05;;;2.15;;
22318;SDS011;11327;52.334;9.506;2023-07-24T05:35:24;2.80;;;2.10;;
22318;SDS011;11327;52.334;9.506;2023-07-24T05:38:45;3.67;;;2.08;;
22318;SDS011;11327;52.334;9.506;2023-07-24T05:42:06;3.92;;;2.30;;
22318;SDS011;11327;52.334;9.506;2023-07-24T05:45:27;4.40;;;2.40;;
22318;SDS011;11327;52.334;9.506;2023-07-24T05:48:48;3.95;;;2.35;;
22318;SDS011;11327;52.334;9.506;2023-07-24T05:52:08;2.72;;;2.05;;
22318;SDS011;11327;52.334;9.506;2023-07-24T05:55:29;3.60;;;2.30;;
22318;SDS011;11327;52.334;9.506;2023-07-24T05:58:50;3.47;;;2.27;;
22318;SDS011;11327;52.334;9.506;2023-07-24T06:02:10;3.00;;;2.25;;
22318;SDS011;11327;52.334;9.506;2023-07-24T06:05:31;2.85;;;2.00;;
22318;SDS011;11327;52.334;9.506;2023-07-24T06:12:32;2.58;;;2.15;;
22318;SDS011;11327;52.334;9.506;2023-07-24T06:15:53;2.65;;;2.25;;
22318;SDS011;11327;52.334;9.506;2023-07-24T06:19:14;3.22;;;2.47;;
22318;SDS011;11327;52.334;9.506;2023-07-24T06:22:35;2.77;;;2.17;;
22318;SDS011;11327;52.334;9.506;2023-07-24T06:25:56;4.08;;;2.47;;
22318;SDS011;11327;52.334;9.506;2023-07-24T06:29:16;2.98;;;2.25;;
22318;SDS011;11327;52.334;9.506;2023-07-24T06:32:37;4.60;;;2.42;;
22318;SDS011;11327;52.334;9.506;2023-07-24T06:35:58;3.55;;;2.33;;
22318;SDS011;11327;52.334;9.506;2023-07-24T06:39:18;7.05;;;2.70;;
22318;SDS011;11327;52.334;9.506;2023-07-24T06:42:39;3.80;;;2.55;;
22318;SDS011;11327;52.334;9.506;2023-07-24T06:46:00;4.40;;;2.47;;
22318;SDS011;11327;52.334;9.506;2023-07-24T06:49:21;6.22;;;2.83;;
22318;SDS011;11327;52.334;9.506;2023-07-24T06:52:41;4.67;;;2.87;;
22318;SDS011;11327;52.334;9.506;2023-07-24T06:56:02;4.80;;;3.02;;
22318;SDS011;11327;52.334;9.506;2023-07-24T06:59:23;4.70;;;2.85;;
22318;SDS011;11327;52.334;9.506;2023-07-24T07:02:44;6.62;;;3.10;;
22318;SDS011;11327;52.334;9.506;2023-07-24T07:06:04;6.05;;;3.08;;
22318;SDS011;11327;52.334;9.506;2023-07-24T07:09:26;3.92;;;2.95;;
22318;SDS011;11327;52.334;9.506;2023-07-24T07:12:47;4.90;;;2.92;;
22318;SDS011;11327;52.334;9.506;2023-07-24T07:16:08;5.05;;;3.00;;
22318;SDS011;11327;52.334;9.506;2023-07-24T07:19:29;5.75;;;2.90;;
22318;SDS011;11327;52.334;9.506;2023-07-24T07:22:49;6.17;;;3.20;;
22318;SDS011;11327;52.334;9.506;2023-07-24T07:26:10;5.40;;;3.20;;
22318;SDS011;11327;52.334;9.506;2023-07-24T07:29:31;5.50;;;3.35;;
22318;SDS011;11327;52.334;9.506;2023-07-24T07:32:51;4.28;;;3.22;;
22318;SDS011;11327;52.334;9.506;2023-07-24T07:36:12;6.30;;;3.20;;
22318;SDS011;11327;52.334;9.506;2023-07-24T07:39:33;5.03;;;3.55;;
22318;SDS011;11327;52.334;9.506;2023-07-24T07:42:54;4.90;;;3.30;;
22318;SDS011;11327;52.334;9.506;2023-07-24T07:46:14;5.40;;;3.25;;
22318;SDS011;11327;52.334;9.506;2023-07-24T07:49:35;5.35;;;3.20;;
22318;SDS011;11327;52.334;9.506;2023-07-24T07:52:56;4.55;;;2.90;;
22318;SDS011;11327;52.334;9.506;2023-07-24T07:56:17;4.75;;;3.10;;
22318;SDS011;11327;52.334;9.506;2023-07-24T07:59:37;4.53;;;2.70;;
22318;SDS011;11327;52.334;9.506;2023-07-24T08:02:58;3.83;;;2.70;;
22318;SDS011;11327;52.334;9.506;2023-07-24T08:06:19;4.35;;;3.30;;
22318;SDS011;11327;52.334;9.506;2023-07-24T08:09:41;3.92;;;3.20;;
22318;SDS011;11327;52.334;9.506;2023-07-24T08:13:02;4.83;;;3.52;;
22318;SDS011;11327;52.334;9.506;2023-07-24T08:16:22;5.28;;;3.75;;
22318;SDS011;11327;52.334;9.506;2023-07-24T08:19:43;7.53;;;4.00;;
22318;SDS011;11327;52.334;9.506;2023-07-24T08:23:04;5.72;;;4.60;;
22318;SDS011;11327;52.334;9.506;2023-07-24T08:26:25;6.62;;;5.10;;
22318;SDS011;11327;52.334;9.506;2023-07-24T08:29:46;5.90;;;5.12;;
22318;SDS011;11327;52.334;9.506;2023-07-24T08:33:11;6.87;;;5.50;;
22318;SDS011;11327;52.334;9.506;2023-07-24T08:36:31;6.30;;;5.70;;
22318;SDS011;11327;52.334;9.506;2023-07-24T08:39:52;6.78;;;5.60;;
22318;SDS011;11327;52.334;9.506;2023-07-24T08:43:13;6.25;;;5.40;;
22318;SDS011;11327;52.334;9.506;2023-07-24T08:46:35;7.80;;;5.95;;
22318;SDS011;11327;52.334;9.506;2023-07-24T08:49:57;7.35;;;6.40;;
22318;SDS011;11327;52.334;9.506;2023-07-24T08:53:19;7.62;;;6.83;;
22318;SDS011;11327;52.334;9.506;2023-07-24T08:56:41;7.55;;;6.55;;
22318;SDS011;11327;52.334;9.506;2023-07-24T09:00:02;7.28;;;6.50;;
22318;SDS011;11327;52.334;9.506;2023-07-24T09:03:25;8.08;;;6.87;;
22318;SDS011;11327;52.334;9.506;2023-07-24T09:06:46;7.92;;;6.75;;
22318;SDS011;11327;52.334;9.506;2023-07-24T09:10:07;7.65;;;6.95;;
22318;SDS011;11327;52.334;9.506;2023-07-24T09:13:29;7.22;;;6.53;;
22318;SDS011;11327;52.334;9.506;2023-07-24T09:17:03;7.72;;;6.80;;
22318;SDS011;11327;52.334;9.506;2023-07-24T09:20:37;7.47;;;6.75;;
22318;SDS011;11327;52.334;9.506;2023-07-24T09:23:52;7.65;;;6.90;;
22318;SDS011;11327;52.334;9.506;2023-07-24T09:27:13;7.72;;;7.00;;
22318;SDS011;11327;52.334;9.506;2023-07-24T09:30:34;7.72;;;6.92;;
22318;SDS011;11327;52.334;9.506;2023-07-24T09:33:55;8.18;;;6.85;;
22318;SDS011;11327;52.334;9.506;2023-07-24T09:37:22;7.78;;;6.97;;
22318;SDS011;11327;52.334;9.506;2023-07-24T09:40:45;7.65;;;6.95;;
22318;SDS011;11327;52.334;9.506;2023-07-24T09:44:07;7.42;;;6.20;;
22318;SDS011;11327;52.334;9.506;2023-07-24T09:47:28;7.25;;;6.33;;
22318;SDS011;11327;52.334;9.506;2023-07-24T09:50:52;7.00;;;5.85;;
22318;SDS011;11327;52.334;9.506;2023-07-24T09:54:17;6.70;;;6.00;;
22318;SDS011;11327;52.334;9.506;2023-07-24T09:57:49;9.00;;;5.87;;
22318;SDS011;11327;52.334;9.506;2023-07-24T10:01:14;8.75;;;5.90;;
22318;SDS011;11327;52.334;9.506;2023-07-24T10:08:17;6.50;;;5.60;;
22318;SDS011;11327;52.334;9.506;2023-07-24T10:11:39;5.90;;;5.30;;
22318;SDS011;11327;52.334;9.506;2023-07-24T10:15:00;7.37;;;5.83;;
22318;SDS011;11327;52.334;9.506;2023-07-24T10:18:28;6.00;;;5.40;;
22318;SDS011;11327;52.334;9.506;2023-07-24T10:21:50;5.80;;;5.08;;
22318;SDS011;11327;52.334;9.506;2023-07-24T10:25:12;5.92;;;5.30;;
22318;SDS011;11327;52.334;9.506;2023-07-24T10:28:34;6.78;;;5.40;;
22318;SDS011;11327;52.334;9.506;2023-07-24T10:31:59;6.03;;;5.42;;
22318;SDS011;11327;52.334;9.506;2023-07-24T10:35:20;6.17;;;5.30;;
22318;SDS011;11327;52.334;9.506;2023-07-24T10:38:42;5.97;;;5.22;;
22318;SDS011;11327;52.334;9.506;2023-07-24T10:42:10;6.10;;;5.50;;
22318;SDS011;11327;52.334;9.506;2023-07-24T10:49:12;7.33;;;6.17;;
22318;SDS011;11327;52.334;9.506;2023-07-24T10:52:33;7.10;;;6.40;;
22318;SDS011;11327;52.334;9.506;2023-07-24T10:55:54;6.65;;;6.05;;
22318;SDS011;11327;52.334;9.506;2023-07-24T10:59:15;8.38;;;6.22;;
22318;SDS011;11327;52.334;9.506;2023-07-24T11:02:35;6.50;;;5.90;;
22318;SDS011;11327;52.334;9.506;2023-07-24T11:05:57;7.83;;;5.70;;
22318;SDS011;11327;52.334;9.506;2023-07-24T11:09:18;6.10;;;5.50;;
22318;SDS011;11327;52.334;9.506;2023-07-24T11:12:39;6.22;;;5.62;;
22318;SDS011;11327;52.334;9.506;2023-07-24T11:16:06;6.60;;;6.00;;
22318;SDS011;11327;52.334;9.506;2023-07-24T11:19:28;7.20;;;6.50;;
22318;SDS011;11327;52.334;9.506;2023-07-24T11:22:48;7.50;;;6.80;;
22318;SDS011;11327;52.334;9.506;2023-07-24T11:26:09;7.25;;;6.55;;
22318;SDS011;11327;52.334;9.506;2023-07-24T11:29:30;7.33;;;6.62;;
22318;SDS011;11327;52.334;9.506;2023-07-24T11:32:50;6.12;;;5.53;;
22318;SDS011;11327;52.334;9.506;2023-07-24T11:36:12;5.83;;;5.22;;
22318;SDS011;11327;52.334;9.506;2023-07-24T11:39:33;6.62;;;5.72;;
22318;SDS011;11327;52.334;9.506;2023-07-24T11:42:54;5.80;;;5.25;;
22318;SDS011;11327;52.334;9.506;2023-07-24T11:46:24;5.83;;;5.22;;
22318;SDS011;11327;52.334;9.506;2023-07-24T11:49:55;7.53;;;6.42;;
22318;SDS011;11327;52.334;9.506;2023-07-24T11:53:38;6.12;;;5.53;;
22318;SDS011;11327;52.334;9.506;2023-07-24T11:56:59;5.83;;;5.20;;
22318;SDS011;11327;52.334;9.506;2023-07-24T12:00:20;5.80;;;5.17;;
22318;SDS011;11327;52.334;9.506;2023-07-24T12:03:42;5.58;;;5.08;;
22318;SDS011;11327;52.334;9.506;2023-07-24T12:07:09;5.50;;;4.65;;
22318;SDS011;11327;52.334;9.506;2023-07-24T12:13:50;5.47;;;4.83;;
22318;SDS011;11327;52.334;9.506;2023-07-24T12:17:17;5.47;;;4.40;;
22318;SDS011;11327;52.334;9.506;2023-07-24T12:20:40;5.60;;;4.37;;
22318;SDS011;11327;52.334;9.506;2023-07-24T12:24:00;4.97;;;4.25;;
22318;SDS011;11327;52.334;9.506;2023-07-24T12:27:21;4.42;;;4.00;;
22318;SDS011;11327;52.334;9.506;2023-07-24T12:30:42;4.62;;;3.80;;
22318;SDS011;11327;52.334;9.506;2023-07-24T12:34:03;4.03;;;3.40;;
22318;SDS011;11327;52.334;9.506;2023-07-24T12:37:23;5.30;;;4.08;;
22318;SDS011;11327;52.334;9.506;2023-07-24T12:40:44;4.40;;;4.00;;
22318;SDS011;11327;52.334;9.506;2023-07-24T12:44:05;6.58;;;4.00;;
22318;SDS011;11327;52.334;9.506;2023-07-24T12:47:25;4.45;;;4.05;;
22318;SDS011;11327;52.334;9.506;2023-07-24T12:50:46;4.22;;;3.60;;
22318;SDS011;11327;52.334;9.506;2023-07-24T12:54:07;5.50;;;4.03;;
22318;SDS011;11327;52.334;9.506;2023-07-24T12:57:28;4.53;;;3.58;;
22318;SDS011;11327;52.334;9.506;2023-07-24T13:00:49;3.60;;;3.30;;
22318;SDS011;11327;52.334;9.506;2023-07-24T13:04:10;3.47;;;2.98;;
22318;SDS011;11327;52.334;9.506;2023-07-24T13:07:30;2.98;;;2.77;;
22318;SDS011;11327;52.334;9.506;2023-07-24T13:10:51;3.08;;;2.87;;
22318;SDS011;11327;52.334;9.506;2023-07-24T13:14:12;4.03;;;3.00;;
22318;SDS011;11327;52.334;9.506;2023-07-24T13:17:33;4.15;;;3.20;;
22318;SDS011;11327;52.334;9.506;2023-07-24T13:20:53;3.83;;;2.87;;
22318;SDS011;11327;52.334;9.506;2023-07-24T13:24:14;3.83;;;3.40;;
22318;SDS011;11327;52.334;9.506;2023-07-24T13:27:35;3.40;;;3.10;;
22318;SDS011;11327;52.334;9.506;2023-07-24T13:30:55;4.45;;;3.92;;
22318;SDS011;11327;52.334;9.506;2023-07-24T13:34:16;4.85;;;4.22;;
22318;SDS011;11327;52.334;9.506;2023-07-24T13:37:39;5.35;;;4.42;;
22318;SDS011;11327;52.334;9.506;2023-07-24T13:40:59;4.65;;;4.25;;
22318;SDS011;11327;52.334;9.506;2023-07-24T13:44:21;5.60;;;4.33;;
22318;SDS011;11327;52.334;9.506;2023-07-24T13:47:41;5.55;;;4.90;;
22318;SDS011;11327;52.334;9.506;2023-07-24T13:51:02;5.67;;;5.15;;
22318;SDS011;11327;52.334;9.506;2023-07-24T13:54:23;6.70;;;5.15;;
22318;SDS011;11327;52.334;9.506;2023-07-24T13:57:44;4.95;;;4.20;;
22318;SDS011;11327;52.334;9.506;2023-07-24T14:01:04;4.62;;;4.15;;
22318;SDS011;11327;52.334;9.506;2023-07-24T14:04:27;4.92;;;4.53;;
22318;SDS011;11327;52.334;9.506;2023-07-24T14:07:48;5.42;;;5.00;;
22318;SDS011;11327;52.334;9.506;2023-07-24T14:11:08;6.35;;;4.97;;
22318;SDS011;11327;52.334;9.506;2023-07-24T14:14:29;6.15;;;5.17;;
22318;SDS011;11327;52.334;9.506;2023-07-24T14:17:50;4.37;;;3.98;;
22318;SDS011;11327;52.334;9.506;2023-07-24T14:21:12;4.37;;;3.98;;
22318;SDS011;11327;52.334;9.506;2023-07-24T14:24:33;4.67;;;4.17;;
22318;SDS011;11327;52.334;9.506;2023-07-24T14:27:54;4.15;;;3.75;;
22318;SDS011;11327;52.334;9.506;2023-07-24T14:31:14;3.98;;;3.58;;
22318;SDS011;11327;52.334;9.506;2023-07-24T14:34:35;4.40;;;3.50;;
22318;SDS011;11327;52.334;9.506;2023-07-24T14:37:56;4.03;;;3.62;;
22318;SDS011;11327;52.334;9.506;2023-07-24T14:41:16;4.40;;;4.00;;
22318;SDS011;11327;52.334;9.506;2023-07-24T14:44:37;4.37;;;3.90;;
22318;SDS011;11327;52.334;9.506;2023-07-24T14:47:58;4.20;;;3.80;;
22318;SDS011;11327;52.334;9.506;2023-07-24T14:51:19;4.20;;;3.90;;
22318;SDS011;11327;52.334;9.506;2023-07-24T14:54:39;4.00;;;3.60;;
22318;SDS011;11327;52.334;9.506;2023-07-24T14:58:00;4.40;;;3.95;;
22318;SDS011;11327;52.334;9.506;2023-07-24T15:01:21;4.37;;;3.98;;
22318;SDS011;11327;52.334;9.506;2023-07-24T15:04:41;3.80;;;3.50;;
22318;SDS011;11327;52.334;9.506;2023-07-24T15:08:02;4.28;;;3.87;;
22318;SDS011;11327;52.334;9.506;2023-07-24T15:11:23;4.22;;;3.87;;
22318;SDS011;11327;52.334;9.506;2023-07-24T15:14:44;4.37;;;3.70;;
22318;SDS011;11327;52.334;9.506;2023-07-24T15:18:05;4.15;;;3.80;;
22318;SDS011;11327;52.334;9.506;2023-07-24T15:21:26;4.03;;;3.65;;
22318;SDS011;11327;52.334;9.506;2023-07-24T15:24:47;4.20;;;3.80;;
22318;SDS011;11327;52.334;9.506;2023-07-24T15:28:07;5.37;;;3.85;;
22318;SDS011;11327;52.334;9.506;2023-07-24T15:31:29;3.83;;;3.42;;
22318;SDS011;11327;52.334;9.506;2023-07-24T15:34:52;3.87;;;3.50;;
22318;SDS011;11327;52.334;9.506;2023-07-24T15:38:12;3.60;;;3.30;;
22318;SDS011;11327;52.334;9.506;2023-07-24T15:41:33;2.95;;;2.60;;
22318;SDS011;11327;52.334;9.506;2023-07-24T15:44:54;3.98;;;3.00;;
22318;SDS011;11327;52.334;9.506;2023-07-24T15:48:15;3.33;;;2.92;;
22318;SDS011;11327;52.334;9.506;2023-07-24T15:51:35;2.92;;;2.72;;
22318;SDS011;11327;52.334;9.506;2023-07-24T15:54:56;4.62;;;3.02;;
22318;SDS011;11327;52.334;9.506;2023-07-24T15:58:17;4.15;;;2.83;;
22318;SDS011;11327;52.334;9.506;2023-07-24T16:01:37;3.37;;;2.95;;
22318;SDS011;11327;52.334;9.506;2023-07-24T16:04:58;3.30;;;3.00;;
22318;SDS011;11327;52.334;9.506;2023-07-24T16:08:19;3.20;;;2.45;;
22318;SDS011;11327;52.334;9.506;2023-07-24T16:11:40;3.77;;;2.85;;
22318;SDS011;11327;52.334;9.506;2023-07-24T16:15:00;3.00;;;2.70;;
22318;SDS011;11327;52.334;9.506;2023-07-24T16:18:21;3.95;;;2.55;;
22318;SDS011;11327;52.334;9.506;2023-07-24T16:21:45;2.95;;;2.27;;
22318;SDS011;11327;52.334;9.506;2023-07-24T16:25:08;3.65;;;2.60;;
22318;SDS011;11327;52.334;9.506;2023-07-24T16:28:28;3.47;;;2.90;;
22318;SDS011;11327;52.334;9.506;2023-07-24T16:31:49;4.05;;;2.50;;
22318;SDS011;11327;52.334;9.506;2023-07-24T16:35:10;3.12;;;2.50;;
22318;SDS011;11327;52.334;9.506;2023-07-24T16:38:31;2.85;;;2.20;;
22318;SDS011;11327;52.334;9.506;2023-07-24T16:41:52;2.80;;;2.50;;
22318;SDS011;11327;52.334;9.506;2023-07-24T16:45:12;2.90;;;2.58;;
22318;SDS011;11327;52.334;9.506;2023-07-24T16:48:33;2.85;;;2.20;;
22318;SDS011;11327;52.334;9.506;2023-07-24T16:51:54;3.40;;;2.30;;
22318;SDS011;11327;52.334;9.506;2023-07-24T16:55:15;2.70;;;1.98;;
22318;SDS011;11327;52.334;9.506;2023-07-24T16:58:35;2.52;;;2.17;;
22318;SDS011;11327;52.334;9.506;2023-07-24T17:01:56;3.40;;;2.15;;
22318;SDS011;11327;52.334;9.506;2023-07-24T17:05:17;2.08;;;1.75;;
22318;SDS011;11327;52.334;9.506;2023-07-24T17:08:38;2.45;;;1.98;;
22318;SDS011;11327;52.334;9.506;2023-07-24T17:11:59;2.72;;;2.17;;
22318;SDS011;11327;52.334;9.506;2023-07-24T17:15:22;2.27;;;1.92;;
22318;SDS011;11327;52.334;9.506;2023-07-24T17:18:44;3.47;;;2.15;;
22318;SDS011;11327;52.334;9.506;2023-07-24T17:22:04;3.15;;;1.87;;
22318;SDS011;11327;52.334;9.506;2023-07-24T17:25:25;2.00;;;1.70;;
22318;SDS011;11327;52.334;9.506;2023-07-24T17:28:46;2.58;;;1.77;;
22318;SDS011;11327;52.334;9.506;2023-07-24T17:32:07;2.40;;;1.82;;
22318;SDS011;11327;52.334;9.506;2023-07-24T17:35:28;2.00;;;1.72;;
22318;SDS011;11327;52.334;9.506;2023-07-24T17:38:49;2.10;;;1.70;;
22318;SDS011;11327;52.334;9.506;2023-07-24T17:42:11;2.70;;;2.00;;
22318;SDS011;11327;52.334;9.506;2023-07-24T17:45:31;2.42;;;1.87;;
22318;SDS011;11327;52.334;9.506;2023-07-24T17:48:52;3.75;;;2.10;;
22318;SDS011;11327;52.334;9.506;2023-07-24T17:52:13;2.85;;;2.08;;
22318;SDS011;11327;52.334;9.506;2023-07-24T17:55:34;3.80;;;2.22;;
22318;SDS011;11327;52.334;9.506;2023-07-24T17:58:54;3.05;;;2.50;;
22318;SDS011;11327;52.334;9.506;2023-07-24T18:02:15;2.60;;;2.10;;
22318;SDS011;11327;52.334;9.506;2023-07-24T18:05:36;2.80;;;2.20;;
22318;SDS011;11327;52.334;9.506;2023-07-24T18:08:56;2.80;;;2.22;;
22318;SDS011;11327;52.334;9.506;2023-07-24T18:12:17;3.05;;;2.40;;
22318;SDS011;11327;52.334;9.506;2023-07-24T18:15:38;2.90;;;2.22;;
22318;SDS011;11327;52.334;9.506;2023-07-24T18:18:59;3.77;;;2.40;;
22318;SDS011;11327;52.334;9.506;2023-07-24T18:22:19;3.08;;;2.42;;
22318;SDS011;11327;52.334;9.506;2023-07-24T18:25:41;2.70;;;2.20;;
22318;SDS011;11327;52.334;9.506;2023-07-24T18:29:02;2.85;;;2.00;;
22318;SDS011;11327;52.334;9.506;2023-07-24T18:32:23;3.15;;;2.40;;
22318;SDS011;11327;52.334;9.506;2023-07-24T18:35:45;5.55;;;3.20;;
22318;SDS011;11327;52.334;9.506;2023-07-24T18:39:06;5.17;;;3.58;;
22318;SDS011;11327;52.334;9.506;2023-07-24T18:42:27;5.87;;;3.42;;
22318;SDS011;11327;52.334;9.506;2023-07-24T18:45:47;4.58;;;3.30;;
22318;SDS011;11327;52.334;9.506;2023-07-24T18:49:08;6.70;;;3.33;;
22318;SDS011;11327;52.334;9.506;2023-07-24T18:52:29;6.78;;;3.50;;
22318;SDS011;11327;52.334;9.506;2023-07-24T18:55:49;7.03;;;4.03;;
22318;SDS011;11327;52.334;9.506;2023-07-24T18:59:12;5.90;;;4.17;;
22318;SDS011;11327;52.334;9.506;2023-07-24T19:02:33;5.83;;;4.28;;
22318;SDS011;11327;52.334;9.506;2023-07-24T19:05:54;4.80;;;4.12;;
22318;SDS011;11327;52.334;9.506;2023-07-24T19:09:15;4.78;;;4.05;;
22318;SDS011;11327;52.334;9.506;2023-07-24T19:12:38;6.87;;;4.37;;
22318;SDS011;11327;52.334;9.506;2023-07-24T19:15:59;6.00;;;4.47;;
22318;SDS011;11327;52.334;9.506;2023-07-24T19:19:20;5.05;;;3.90;;
22318;SDS011;11327;52.334;9.506;2023-07-24T19:22:41;7.05;;;4.55;;
22318;SDS011;11327;52.334;9.506;2023-07-24T19:26:02;5.53;;;3.80;;
22318;SDS011;11327;52.334;9.506;2023-07-24T19:29:23;5.87;;;4.12;;
22318;SDS011;11327;52.334;9.506;2023-07-24T19:32:44;5.15;;;3.80;;
22318;SDS011;11327;52.334;9.506;2023-07-24T19:36:04;5.12;;;4.20;;
22318;SDS011;11327;52.334;9.506;2023-07-24T19:39:25;4.28;;;3.80;;
22318;SDS011;11327;52.334;9.506;2023-07-24T19:42:46;4.90;;;3.70;;
22318;SDS011;11327;52.334;9.506;2023-07-24T19:46:07;3.58;;;3.27;;
22318;SDS011;11327;52.334;9.506;2023-07-24T19:49:28;4.55;;;3.52;;
22318;SDS011;11327;52.334;9.506;2023-07-24T19:52:50;3.62;;;3.17;;
22318;SDS011;11327;52.334;9.506;2023-07-24T19:56:10;4.12;;;3.20;;
22318;SDS011;11327;52.334;9.506;2023-07-24T19:59:31;4.75;;;3.27;;
22318;SDS011;11327;52.334;9.506;2023-07-24T20:02:52;4.83;;;3.40;;
22318;SDS011;11327;52.334;9.506;2023-07-24T20:06:12;4.42;;;3.70;;
22318;SDS011;11327;52.334;9.506;2023-07-24T20:09:33;4.95;;;3.72;;
22318;SDS011;11327;52.334;9.506;2023-07-24T20:12:55;4.95;;;3.83;;
22318;SDS011;11327;52.334;9.506;2023-07-24T20:16:16;7.12;;;4.20;;
22318;SDS011;11327;52.334;9.506;2023-07-24T20:19:39;4.80;;;4.30;;
22318;SDS011;11327;52.334;9.506;2023-07-24T20:22:59;5.00;;;4.30;;
22318;SDS011;11327;52.334;9.506;2023-07-24T20:26:20;5.37;;;4.70;;